createdAt,value
2022-10-03T00:01:19.646Z,101170.34
2022-10-03T00:02:26.968Z,101180.22
2022-10-03T00:03:29.218Z,101178.78
2022-10-03T00:04:36.655Z,101181.59
2022-10-03T00:05:38.054Z,101175.13
2022-10-03T00:06:57.652Z,101179.06
2022-10-03T00:08:05.223Z,101168.66
2022-10-03T00:09:11.247Z,101179.91
2022-10-03T00:10:16.489Z,101177.09
2022-10-03T00:11:29.930Z,101170.63
2022-10-03T00:12:49.855Z,101174.84
2022-10-03T00:13:51.360Z,101176.81
2022-10-03T00:15:07.771Z,101174.00
2022-10-03T00:16:09.410Z,101174.84
2022-10-03T00:17:40.275Z,101173.16
2022-10-03T00:18:44.538Z,101177.09
2022-10-03T00:20:01.065Z,101182.72
2022-10-03T00:21:08.467Z,101178.22
2022-10-03T00:22:33.252Z,101177.38
2022-10-03T00:23:40.537Z,101173.72
2022-10-03T00:24:41.984Z,101184.41
2022-10-03T00:25:54.221Z,101184.41
2022-10-03T00:27:18.950Z,101184.41
2022-10-03T00:28:39.131Z,101182.72
2022-10-03T00:29:57.990Z,101184.41
2022-10-03T00:31:07.395Z,101189.16
2022-10-03T00:32:27.480Z,101186.63
2022-10-03T00:33:31.991Z,101184.09
2022-10-03T00:34:47.083Z,101187.19
2022-10-03T00:35:54.535Z,101187.19
2022-10-03T00:37:09.942Z,101183.78
2022-10-03T00:38:19.264Z,101186.03
2022-10-03T00:39:39.045Z,101190.81
2022-10-03T00:41:00.258Z,101183.22
2022-10-03T00:42:14.886Z,101195.59
2022-10-03T00:43:31.426Z,101197.28
2022-10-03T00:44:37.124Z,101190.81
2022-10-03T00:45:55.570Z,101192.78
2022-10-03T00:47:06.201Z,101197.28
2022-10-03T00:48:10.709Z,101193.91
2022-10-03T00:49:21.324Z,101197.81
2022-10-03T00:50:28.411Z,101198.66
2022-10-03T00:51:40.217Z,101204.28
2022-10-03T00:53:00.327Z,101203.44
2022-10-03T00:54:04.832Z,101205.41
2022-10-03T00:55:12.363Z,101201.75
2022-10-03T00:56:21.701Z,101201.75
2022-10-03T00:57:23.117Z,101216.94
2022-10-03T00:58:33.478Z,101217.19
2022-10-03T00:59:37.747Z,101211.59
2022-10-03T01:00:39.195Z,101212.44
2022-10-03T01:01:47.090Z,101216.34
2022-10-03T01:02:52.227Z,101208.78
2022-10-03T01:04:26.844Z,101213.53
2022-10-03T01:05:37.412Z,101204.56
2022-10-03T01:06:42.319Z,101208.44
2022-10-03T01:08:02.636Z,101207.03
2022-10-03T01:09:16.689Z,101211.81
2022-10-03T01:10:36.724Z,101205.63
2022-10-03T01:11:47.377Z,101214.31
2022-10-03T01:12:51.855Z,101215.19
2022-10-03T01:13:56.435Z,101217.97
2022-10-03T01:15:03.838Z,101223.59
2022-10-03T01:16:24.641Z,101221.91
2022-10-03T01:17:26.155Z,101218.25
2022-10-03T01:18:53.587Z,101222.19
2022-10-03T01:20:21.672Z,101226.13
2022-10-03T01:21:26.312Z,101225.28
2022-10-03T01:22:39.791Z,101226.13
2022-10-03T01:23:59.680Z,101230.88
2022-10-03T01:25:11.281Z,101223.59
2022-10-03T01:26:31.414Z,101231.41
2022-10-03T01:28:00.729Z,101224.94
2022-10-03T01:29:22.381Z,101229.41
2022-10-03T01:30:24.075Z,101230.25
2022-10-03T01:31:38.201Z,101225.75
2022-10-03T01:32:55.116Z,101238.66
2022-10-03T01:34:01.376Z,101229.66
2022-10-03T01:35:07.738Z,101232.47
2022-10-03T01:36:11.967Z,101228.25
2022-10-03T01:37:16.928Z,101232.44
2022-10-03T01:38:21.432Z,101235.25
2022-10-03T01:39:34.682Z,101237.47
2022-10-03T01:40:37.895Z,101241.41
2022-10-03T01:41:48.573Z,101242.50
2022-10-03T01:43:08.545Z,101245.31
2022-10-03T01:44:16.427Z,101243.63
2022-10-03T01:45:50.133Z,101248.69
2022-10-03T01:47:00.296Z,101252.59
2022-10-03T01:48:01.771Z,101249.78
2022-10-03T01:49:03.199Z,101247.25
2022-10-03T01:50:04.653Z,101246.69
2022-10-03T01:51:24.929Z,101252.03
2022-10-03T01:52:26.350Z,101250.34
2022-10-03T01:53:38.322Z,101252.53
2022-10-03T01:54:39.757Z,101250.84
2022-10-03T01:55:59.902Z,101249.16
2022-10-03T01:57:01.797Z,101250.81
2022-10-03T01:58:03.271Z,101257.28
2022-10-03T01:59:21.826Z,101254.75
2022-10-03T02:00:24.027Z,101255.03
2022-10-03T02:01:27.791Z,101247.72
2022-10-03T02:02:34.343Z,101269.34
2022-10-03T02:03:47.047Z,101264.84
2022-10-03T02:04:51.579Z,101268.16
2022-10-03T02:06:01.099Z,101263.38
2022-10-03T02:07:05.675Z,101265.34
2022-10-03T02:08:23.899Z,101256.09
2022-10-03T02:09:25.323Z,101260.84
2022-10-03T02:10:33.206Z,101257.47
2022-10-03T02:11:39.287Z,101263.09
2022-10-03T02:12:41.605Z,101255.50
2022-10-03T02:13:43.105Z,101262.25
2022-10-03T02:14:49.681Z,101255.78
2022-10-03T02:16:09.237Z,101261.41
2022-10-03T02:17:10.751Z,101256.06
2022-10-03T02:18:21.692Z,101254.09
2022-10-03T02:19:23.106Z,101252.41
2022-10-03T02:20:25.675Z,101252.41
2022-10-03T02:21:28.060Z,101255.22
2022-10-03T02:22:30.751Z,101254.63
2022-10-03T02:23:32.227Z,101258.00
2022-10-03T02:24:37.111Z,101256.31
2022-10-03T02:25:40.602Z,101249.28
2022-10-03T02:27:00.607Z,101252.94
2022-10-03T02:28:04.615Z,101249.53
2022-10-03T02:29:15.395Z,101249.53
2022-10-03T02:30:18.722Z,101254.56
2022-10-03T02:31:20.250Z,101251.75
2022-10-03T02:32:21.665Z,101244.47
2022-10-03T02:33:41.259Z,101248.38
2022-10-03T02:35:02.125Z,101243.03
2022-10-03T02:36:22.280Z,101245.00
2022-10-03T02:37:23.732Z,101239.94
2022-10-03T02:38:44.001Z,101242.75
2022-10-03T02:40:01.691Z,101241.06
2022-10-03T02:41:03.165Z,101241.31
2022-10-03T02:42:25.946Z,101239.59
2022-10-03T02:43:27.467Z,101242.69
2022-10-03T02:44:38.743Z,101244.63
2022-10-03T02:45:55.252Z,101240.97
2022-10-03T02:46:58.643Z,101244.06
2022-10-03T02:48:20.184Z,101247.69
2022-10-03T02:49:42.451Z,101248.53
2022-10-03T02:50:53.555Z,101246.00
2022-10-03T02:52:01.005Z,101241.50
2022-10-03T02:53:02.403Z,101257.22
2022-10-03T02:54:09.754Z,101255.53
2022-10-03T02:55:29.766Z,101251.88
2022-10-03T02:56:34.327Z,101252.09
2022-10-03T02:57:35.784Z,101256.03
2022-10-03T02:58:40.835Z,101256.28
2022-10-03T02:59:45.381Z,101254.34
2022-10-03T03:01:16.039Z,101241.44
2022-10-03T03:02:36.145Z,101249.25
2022-10-03T03:03:43.406Z,101257.09
2022-10-03T03:05:03.455Z,101252.59
2022-10-03T03:06:18.028Z,101263.25
2022-10-03T03:07:22.502Z,101259.88
2022-10-03T03:08:28.587Z,101260.94
2022-10-03T03:09:48.474Z,101263.19
2022-10-03T03:11:08.748Z,101274.66
2022-10-03T03:12:16.002Z,101276.03
2022-10-03T03:13:37.987Z,101272.66
2022-10-03T03:14:45.695Z,101281.63
2022-10-03T03:15:59.883Z,101288.31
2022-10-03T03:17:08.739Z,101276.50
2022-10-03T03:18:30.458Z,101278.72
2022-10-03T03:19:31.997Z,101285.44
2022-10-03T03:20:54.436Z,101281.81
2022-10-03T03:22:06.449Z,101279.25
2022-10-03T03:23:07.886Z,101277.56
2022-10-03T03:24:18.834Z,101292.69
2022-10-03T03:25:20.336Z,101285.41
2022-10-03T03:26:32.336Z,101282.59
2022-10-03T03:27:36.691Z,101280.06
2022-10-03T03:28:57.412Z,101283.94
2022-10-03T03:30:10.855Z,101282.25
2022-10-03T03:31:13.764Z,101292.63
2022-10-03T03:32:22.052Z,101279.72
2022-10-03T03:33:33.339Z,101280.84
2022-10-03T03:35:13.647Z,101281.06
2022-10-03T03:36:18.956Z,101288.03
2022-10-03T03:37:40.654Z,101279.91
2022-10-03T03:38:45.500Z,101279.91
2022-10-03T03:40:07.715Z,101285.78
2022-10-03T03:41:13.163Z,101287.72
2022-10-03T03:42:34.768Z,101285.16
2022-10-03T03:43:36.219Z,101283.47
2022-10-03T03:44:47.554Z,101286.28
2022-10-03T03:45:55.557Z,101285.69
2022-10-03T03:47:06.164Z,101282.88
2022-10-03T03:48:08.398Z,101279.25
2022-10-03T03:49:23.431Z,101285.13
2022-10-03T03:50:24.836Z,101286.22
2022-10-03T03:51:33.215Z,101286.22
2022-10-03T03:52:46.427Z,101280.63
2022-10-03T03:54:03.162Z,101289.03
2022-10-03T03:55:15.235Z,101282.84
2022-10-03T03:56:48.908Z,101285.91
2022-10-03T03:58:09.135Z,101289.81
2022-10-03T03:59:12.714Z,101291.78
2022-10-03T04:00:17.048Z,101293.72
2022-10-03T04:01:24.906Z,101293.97
2022-10-03T04:02:42.423Z,101303.22
2022-10-03T04:04:02.635Z,101296.78
2022-10-03T04:05:23.746Z,101295.06
2022-10-03T04:06:48.558Z,101293.38
2022-10-03T04:08:12.326Z,101301.22
2022-10-03T04:09:32.796Z,101304.28
2022-10-03T04:10:49.219Z,101307.34
2022-10-03T04:12:05.491Z,101310.16
2022-10-03T04:13:07.831Z,101309.56
2022-10-03T04:14:15.315Z,101305.06
2022-10-03T04:15:16.782Z,101307.88
2022-10-03T04:16:55.850Z,101311.78
2022-10-03T04:18:28.178Z,101307.50
2022-10-03T04:19:41.678Z,101314.50
2022-10-03T04:20:56.217Z,101313.66
2022-10-03T04:22:12.039Z,101314.75
2022-10-03T04:23:31.713Z,101321.22
2022-10-03T04:24:52.134Z,101323.16
2022-10-03T04:26:09.014Z,101312.47
2022-10-03T04:27:10.483Z,101322.84
2022-10-03T04:28:26.739Z,101325.91
2022-10-03T04:29:31.234Z,101324.78
2022-10-03T04:30:51.614Z,101317.75
2022-10-03T04:32:16.357Z,101324.22
2022-10-03T04:33:32.863Z,101327.25
2022-10-03T04:34:40.115Z,101326.66
2022-10-03T04:36:11.131Z,101326.91
2022-10-03T04:37:12.536Z,101328.03
2022-10-03T04:38:16.742Z,101323.53
2022-10-03T04:39:37.098Z,101317.09
2022-10-03T04:40:45.187Z,101324.63
2022-10-03T04:42:04.979Z,101319.03
2022-10-03T04:43:09.954Z,101321.00
2022-10-03T04:44:15.613Z,101309.47
2022-10-03T04:45:19.855Z,101317.88
2022-10-03T04:46:21.345Z,101314.22
2022-10-03T04:47:32.287Z,101318.72
2022-10-03T04:48:51.773Z,101321.50
2022-10-03T04:49:56.220Z,101327.13
2022-10-03T04:51:08.936Z,101321.50
2022-10-03T04:52:16.695Z,101319.81
2022-10-03T04:53:20.057Z,101319.81
2022-10-03T04:54:24.323Z,101332.72
2022-10-03T04:55:35.888Z,101325.41
2022-10-03T04:56:52.417Z,101322.84
2022-10-03T04:58:04.188Z,101324.81
2022-10-03T04:59:25.404Z,101325.91
2022-10-03T05:00:31.352Z,101324.22
2022-10-03T05:01:41.273Z,101330.94
2022-10-03T05:02:47.213Z,101332.03
2022-10-03T05:04:10.559Z,101332.03
2022-10-03T05:05:19.735Z,101330.34
2022-10-03T05:06:26.933Z,101332.56
2022-10-03T05:07:47.343Z,101336.47
2022-10-03T05:09:01.311Z,101334.75
2022-10-03T05:10:09.207Z,101338.69
2022-10-03T05:11:13.386Z,101341.13
2022-10-03T05:12:30.996Z,101340.28
2022-10-03T05:13:49.377Z,101338.56
2022-10-03T05:14:50.883Z,101336.28
2022-10-03T05:15:56.795Z,101336.28
2022-10-03T05:17:06.240Z,101340.19
2022-10-03T05:18:14.522Z,101339.63
2022-10-03T05:19:20.307Z,101339.88
2022-10-03T05:20:40.967Z,101339.03
2022-10-03T05:22:08.879Z,101347.06
2022-10-03T05:23:10.270Z,101347.31
2022-10-03T05:24:26.803Z,101344.78
2022-10-03T05:25:31.294Z,101341.97
2022-10-03T05:26:47.451Z,101340.28
2022-10-03T05:27:53.766Z,101350.38
2022-10-03T05:29:02.500Z,101341.13
2022-10-03T05:30:04.036Z,101350.06
2022-10-03T05:31:24.383Z,101344.44
2022-10-03T05:32:41.131Z,101345.28
2022-10-03T05:33:45.674Z,101351.75
2022-10-03T05:34:47.090Z,101352.00
2022-10-03T05:35:52.267Z,101353.94
2022-10-03T05:36:56.935Z,101351.16
2022-10-03T05:37:58.333Z,101354.81
2022-10-03T05:39:18.514Z,101358.97
2022-10-03T05:40:24.527Z,101364.56
2022-10-03T05:41:26.978Z,101356.16
2022-10-03T05:42:28.420Z,101368.44
2022-10-03T05:43:58.368Z,101362.84
2022-10-03T05:45:04.400Z,101362.00
2022-10-03T05:46:24.479Z,101361.13
2022-10-03T05:47:48.896Z,101367.25
2022-10-03T05:48:52.468Z,101366.16
2022-10-03T05:50:01.458Z,101363.94
2022-10-03T05:51:17.957Z,101371.50
2022-10-03T05:52:19.414Z,101360.03
2022-10-03T05:53:33.064Z,101367.34
2022-10-03T05:54:49.603Z,101369.06
2022-10-03T05:55:57.126Z,101365.16
2022-10-03T05:57:03.969Z,101366.84
2022-10-03T05:58:05.399Z,101368.22
2022-10-03T05:59:06.858Z,101368.44
2022-10-03T06:00:24.021Z,101381.09
2022-10-03T06:01:25.502Z,101382.19
2022-10-03T06:02:51.403Z,101377.19
2022-10-03T06:03:52.917Z,101387.03
2022-10-03T06:04:54.357Z,101388.72
2022-10-03T06:06:08.048Z,101389.31
2022-10-03T06:07:28.360Z,101392.69
2022-10-03T06:08:44.863Z,101389.66
2022-10-03T06:10:04.601Z,101389.91
2022-10-03T06:11:24.721Z,101390.25
2022-10-03T06:12:35.450Z,101391.13
2022-10-03T06:13:45.801Z,101394.25
2022-10-03T06:14:59.776Z,101390.09
2022-10-03T06:16:23.012Z,101397.38
2022-10-03T06:17:30.131Z,101396.84
2022-10-03T06:18:37.546Z,101393.84
2022-10-03T06:19:57.787Z,101396.38
2022-10-03T06:21:05.178Z,101393.06
2022-10-03T06:22:10.284Z,101388.63
2022-10-03T06:23:31.165Z,101395.66
2022-10-03T06:24:41.601Z,101393.81
2022-10-03T06:25:55.270Z,101392.19
2022-10-03T06:27:05.639Z,101393.41
2022-10-03T06:28:20.126Z,101397.97
2022-10-03T06:29:25.022Z,101402.78
2022-10-03T06:30:46.622Z,101403.97
2022-10-03T06:31:50.505Z,101409.38
2022-10-03T06:32:51.916Z,101403.25
2022-10-03T06:34:02.427Z,101401.41
2022-10-03T06:35:04.352Z,101407.06
2022-10-03T06:36:05.887Z,101402.41
2022-10-03T06:37:15.675Z,101404.41
2022-10-03T06:38:26.558Z,101405.38
2022-10-03T06:39:35.062Z,101404.59
2022-10-03T06:40:37.211Z,101401.56
2022-10-03T06:41:57.525Z,101401.66
2022-10-03T06:43:11.242Z,101402.28
2022-10-03T06:44:12.861Z,101403.50
2022-10-03T06:45:25.610Z,101392.59
2022-10-03T06:46:40.189Z,101394.59
2022-10-03T06:47:51.356Z,101400.28
2022-10-03T06:48:55.760Z,101389.09
2022-10-03T06:50:19.453Z,101393.91
2022-10-03T06:51:28.302Z,101394.31
2022-10-03T06:52:36.207Z,101397.19
2022-10-03T06:53:37.640Z,101396.13
2022-10-03T06:54:42.057Z,101406.31
2022-10-03T06:55:43.582Z,101397.38
2022-10-03T06:56:50.907Z,101403.66
2022-10-03T06:58:07.157Z,101406.81
2022-10-03T06:59:08.616Z,101397.91
2022-10-03T07:00:12.001Z,101394.66
2022-10-03T07:01:13.457Z,101402.84
2022-10-03T07:02:21.700Z,101400.09
2022-10-03T07:03:23.200Z,101406.31
2022-10-03T07:04:44.910Z,101387.53
2022-10-03T07:05:59.163Z,101396.88
2022-10-03T07:07:12.597Z,101398.63
2022-10-03T07:08:32.408Z,101388.00
2022-10-03T07:09:43.095Z,101393.38
2022-10-03T07:10:53.412Z,101387.25
2022-10-03T07:12:09.699Z,101384.22
2022-10-03T07:13:14.475Z,101392.13
2022-10-03T07:14:38.995Z,101385.13
2022-10-03T07:16:25.406Z,101389.69
2022-10-03T07:17:27.224Z,101387.81
2022-10-03T07:18:47.807Z,101395.41
2022-10-03T07:20:10.651Z,101385.88
2022-10-03T07:21:39.058Z,101386.78
2022-10-03T07:22:55.981Z,101387.66
2022-10-03T07:24:15.630Z,101391.31
2022-10-03T07:25:26.233Z,101388.22
2022-10-03T07:26:27.656Z,101387.41
2022-10-03T07:27:51.102Z,101389.09
2022-10-03T07:28:52.894Z,101389.13
2022-10-03T07:29:54.388Z,101388.84
2022-10-03T07:31:01.511Z,101384.63
2022-10-03T07:32:11.455Z,101386.88
2022-10-03T07:33:38.139Z,101393.63
2022-10-03T07:34:53.699Z,101399.25
2022-10-03T07:36:13.499Z,101397.81
2022-10-03T07:37:52.257Z,101398.66
2022-10-03T07:38:58.712Z,101399.72
2022-10-03T07:40:18.488Z,101405.34
2022-10-03T07:41:31.270Z,101400.50
2022-10-03T07:42:32.743Z,101401.31
2022-10-03T07:44:03.996Z,101405.19
2022-10-03T07:45:14.299Z,101408.53
2022-10-03T07:46:39.327Z,101407.59
2022-10-03T07:47:52.887Z,101417.97
2022-10-03T07:49:03.126Z,101410.25
2022-10-03T07:50:18.055Z,101412.97
2022-10-03T07:51:19.519Z,101414.81
2022-10-03T07:52:24.447Z,101412.13
2022-10-03T07:53:44.648Z,101417.31
2022-10-03T07:55:04.760Z,101408.69
2022-10-03T07:56:25.453Z,101408.50
2022-10-03T07:57:35.272Z,101411.13
2022-10-03T07:58:55.574Z,101416.59
2022-10-03T08:00:06.571Z,101412.44
2022-10-03T08:01:34.806Z,101417.22
2022-10-03T08:02:42.329Z,101409.56
2022-10-03T08:03:43.939Z,101417.81
2022-10-03T08:04:48.450Z,101418.72
2022-10-03T08:06:07.978Z,101409.13
2022-10-03T08:07:12.451Z,101416.47
2022-10-03T08:08:13.853Z,101417.34
2022-10-03T08:09:20.083Z,101412.13
2022-10-03T08:10:21.645Z,101413.50
2022-10-03T08:11:29.675Z,101417.50
2022-10-03T08:12:38.444Z,101410.13
2022-10-03T08:13:49.456Z,101413.84
2022-10-03T08:15:04.914Z,101423.53
2022-10-03T08:16:06.398Z,101419.31
2022-10-03T08:17:13.665Z,101415.16
2022-10-03T08:18:26.522Z,101413.91
2022-10-03T08:19:46.780Z,101420.22
2022-10-03T08:20:48.264Z,101415.75
2022-10-03T08:21:49.668Z,101414.16
2022-10-03T08:22:54.180Z,101411.72
2022-10-03T08:24:14.562Z,101422.03
2022-10-03T08:25:29.319Z,101408.63
2022-10-03T08:26:34.410Z,101417.94
2022-10-03T08:27:41.763Z,101416.88
2022-10-03T08:28:47.197Z,101417.88
2022-10-03T08:30:01.061Z,101402.69
2022-10-03T08:31:21.136Z,101416.28
2022-10-03T08:32:47.768Z,101410.84
2022-10-03T08:33:52.621Z,101409.50
2022-10-03T08:34:57.306Z,101407.59
2022-10-03T08:36:17.187Z,101407.84
2022-10-03T08:37:37.392Z,101410.91
2022-10-03T08:38:41.730Z,101406.44
2022-10-03T08:39:49.028Z,101416.88
2022-10-03T08:40:53.632Z,101406.75
2022-10-03T08:41:55.506Z,101410.81
2022-10-03T08:43:03.927Z,101405.97
2022-10-03T08:44:28.184Z,101413.03
2022-10-03T08:45:40.793Z,101406.16
2022-10-03T08:46:51.649Z,101400.81
2022-10-03T08:48:12.527Z,101401.47
2022-10-03T08:49:34.065Z,101398.13
2022-10-03T08:51:08.036Z,101395.25
2022-10-03T08:52:09.455Z,101399.94
2022-10-03T08:53:16.975Z,101402.09
2022-10-03T08:54:31.068Z,101397.72
2022-10-03T08:55:51.267Z,101405.78
2022-10-03T08:57:08.347Z,101399.31
2022-10-03T08:58:12.659Z,101394.91
2022-10-03T08:59:26.118Z,101396.56
2022-10-03T09:00:27.567Z,101400.19
2022-10-03T09:01:32.113Z,101390.06
2022-10-03T09:03:20.167Z,101396.94
2022-10-03T09:04:16.722Z,101388.72
2022-10-03T09:05:36.679Z,101396.28
2022-10-03T09:07:16.532Z,101389.97
2022-10-03T09:08:33.882Z,101399.34
2022-10-03T09:09:51.317Z,101391.84
2022-10-03T09:10:55.385Z,101391.31
2022-10-03T09:12:05.966Z,101392.13
2022-10-03T09:13:26.127Z,101394.03
2022-10-03T09:14:34.505Z,101389.56
2022-10-03T09:15:55.002Z,101393.31
2022-10-03T09:17:06.314Z,101394.50
2022-10-03T09:18:08.068Z,101387.94
2022-10-03T09:19:18.375Z,101393.59
2022-10-03T09:20:38.631Z,101392.31
2022-10-03T09:21:49.417Z,101394.16
2022-10-03T09:23:09.479Z,101393.34
2022-10-03T09:24:23.027Z,101392.53
2022-10-03T09:25:35.051Z,101394.09
2022-10-03T09:26:45.436Z,101397.81
2022-10-03T09:28:05.793Z,101392.66
2022-10-03T09:29:16.455Z,101393.41
2022-10-03T09:30:23.782Z,101397.25
2022-10-03T09:31:25.438Z,101382.91
2022-10-03T09:32:45.544Z,101397.81
2022-10-03T09:33:55.939Z,101394.25
2022-10-03T09:35:07.307Z,101396.50
2022-10-03T09:36:15.491Z,101401.03
2022-10-03T09:37:30.531Z,101399.25
2022-10-03T09:38:31.981Z,101401.53
2022-10-03T09:39:45.634Z,101398.19
2022-10-03T09:40:56.619Z,101402.38
2022-10-03T09:42:16.905Z,101399.50
2022-10-03T09:43:24.470Z,101403.41
2022-10-03T09:44:34.782Z,101401.75
2022-10-03T09:45:45.484Z,101403.88
2022-10-03T09:47:23.987Z,101395.38
2022-10-03T09:48:34.888Z,101406.00
2022-10-03T09:49:42.111Z,101399.31
2022-10-03T09:50:54.081Z,101393.47
2022-10-03T09:51:55.540Z,101398.34
2022-10-03T09:53:02.444Z,101398.78
2022-10-03T09:54:16.767Z,101397.53
2022-10-03T09:55:24.003Z,101406.91
2022-10-03T09:56:25.468Z,101393.69
2022-10-03T09:57:48.186Z,101401.56
2022-10-03T09:58:49.663Z,101396.31
2022-10-03T09:59:51.074Z,101401.25
2022-10-03T10:00:52.611Z,101407.97
2022-10-03T10:02:03.588Z,101406.28
2022-10-03T10:03:10.162Z,101402.75
2022-10-03T10:04:14.533Z,101404.91
2022-10-03T10:05:16.046Z,101402.41
2022-10-03T10:06:27.139Z,101404.19
2022-10-03T10:07:47.507Z,101394.03
2022-10-03T10:08:58.199Z,101404.09
2022-10-03T10:10:16.374Z,101402.69
2022-10-03T10:11:23.354Z,101395.16
2022-10-03T10:12:33.655Z,101394.03
2022-10-03T10:14:06.356Z,101400.06
2022-10-03T10:15:02.303Z,101397.25
2022-10-03T10:16:08.388Z,101396.19
2022-10-03T10:17:19.146Z,101394.53
2022-10-03T10:18:20.622Z,101389.22
2022-10-03T10:19:22.155Z,101387.72
2022-10-03T10:20:42.300Z,101390.50
2022-10-03T10:21:49.686Z,101390.16
2022-10-03T10:23:11.063Z,101383.13
2022-10-03T10:24:21.677Z,101383.97
2022-10-03T10:25:32.318Z,101387.03
2022-10-03T10:26:53.842Z,101381.78
2022-10-03T10:28:05.128Z,101378.59
2022-10-03T10:29:25.268Z,101380.81
2022-10-03T10:30:27.119Z,101372.59
2022-10-03T10:31:46.173Z,101371.66
2022-10-03T10:33:06.676Z,101375.84
2022-10-03T10:34:11.119Z,101375.50
2022-10-03T10:35:18.238Z,101378.13
2022-10-03T10:36:38.305Z,101382.16
2022-10-03T10:37:46.480Z,101385.75
2022-10-03T10:39:06.611Z,101386.47
2022-10-03T10:40:27.128Z,101381.66
2022-10-03T10:41:37.859Z,101374.97
2022-10-03T10:42:45.748Z,101379.50
2022-10-03T10:43:53.194Z,101379.00
2022-10-03T10:44:55.815Z,101382.16
2022-10-03T10:46:29.604Z,101383.25
2022-10-03T10:47:46.031Z,101378.94
2022-10-03T10:48:47.466Z,101382.50
2022-10-03T10:49:51.987Z,101386.78
2022-10-03T10:50:59.306Z,101382.78
2022-10-03T10:52:00.710Z,101385.22
2022-10-03T10:53:20.843Z,101384.28
2022-10-03T10:54:25.032Z,101389.41
2022-10-03T10:55:46.333Z,101380.56
2022-10-03T10:56:47.827Z,101388.63
2022-10-03T10:58:08.659Z,101384.94
2022-10-03T10:59:28.996Z,101387.34
2022-10-03T11:00:31.513Z,101380.22
2022-10-03T11:01:40.839Z,101378.88
2022-10-03T11:03:00.710Z,101388.25
2022-10-03T11:04:10.987Z,101389.94
2022-10-03T11:05:32.705Z,101389.09
2022-10-03T11:06:53.508Z,101390.09
2022-10-03T11:08:07.219Z,101389.91
2022-10-03T11:09:11.535Z,101388.31
2022-10-03T11:10:28.192Z,101385.69
2022-10-03T11:11:48.525Z,101386.28
2022-10-03T11:13:00.770Z,101383.97
2022-10-03T11:14:26.585Z,101379.94
2022-10-03T11:15:47.679Z,101380.88
2022-10-03T11:16:58.211Z,101377.13
2022-10-03T11:18:18.571Z,101379.53
2022-10-03T11:19:26.642Z,101379.59
2022-10-03T11:20:33.694Z,101375.97
2022-10-03T11:21:53.548Z,101378.81
2022-10-03T11:23:13.518Z,101378.00
2022-10-03T11:24:33.556Z,101371.97
2022-10-03T11:25:50.933Z,101378.38
2022-10-03T11:26:59.366Z,101383.91
2022-10-03T11:28:20.571Z,101380.41
2022-10-03T11:29:40.906Z,101377.72
2022-10-03T11:30:42.795Z,101373.38
2022-10-03T11:32:03.265Z,101380.94
2022-10-03T11:33:05.331Z,101371.88
2022-10-03T11:34:16.176Z,101378.81
2022-10-03T11:35:17.590Z,101372.25
2022-10-03T11:36:32.333Z,101370.94
2022-10-03T11:37:43.974Z,101372.44
2022-10-03T11:38:55.035Z,101372.41
2022-10-03T11:40:03.742Z,101368.91
2022-10-03T11:41:13.803Z,101367.22
2022-10-03T11:42:18.307Z,101362.16
2022-10-03T11:43:22.534Z,101362.16
2022-10-03T11:44:25.047Z,101360.50
2022-10-03T11:45:28.907Z,101364.69
2022-10-03T11:46:50.273Z,101367.38
2022-10-03T11:47:52.710Z,101351.44
2022-10-03T11:49:07.022Z,101368.91
2022-10-03T11:50:18.846Z,101369.72
2022-10-03T11:51:23.419Z,101373.06
2022-10-03T11:52:33.211Z,101367.88
2022-10-03T11:53:44.641Z,101372.72
2022-10-03T11:54:46.391Z,101366.53
2022-10-03T11:56:08.219Z,101373.91
2022-10-03T11:57:13.687Z,101365.16
2022-10-03T11:58:32.331Z,101365.34
2022-10-03T11:59:45.434Z,101364.31
2022-10-03T12:00:47.478Z,101362.66
2022-10-03T12:02:06.922Z,101360.63
2022-10-03T12:03:14.366Z,101361.63
2022-10-03T12:04:20.842Z,101356.94
2022-10-03T12:05:40.975Z,101357.25
2022-10-03T12:07:07.888Z,101368.28
2022-10-03T12:08:48.299Z,101361.03
2022-10-03T12:09:59.039Z,101356.00
2022-10-03T12:11:00.512Z,101358.38
2022-10-03T12:12:09.719Z,101357.19
2022-10-03T12:13:16.557Z,101354.69
2022-10-03T12:14:27.931Z,101352.84
2022-10-03T12:15:29.352Z,101352.28
2022-10-03T12:16:32.592Z,101355.69
2022-10-03T12:17:37.060Z,101358.53
2022-10-03T12:18:42.755Z,101361.88
2022-10-03T12:19:50.408Z,101350.47
2022-10-03T12:21:08.239Z,101348.13
2022-10-03T12:22:09.773Z,101342.44
2022-10-03T12:23:17.275Z,101349.81
2022-10-03T12:24:18.726Z,101344.13
2022-10-03T12:25:24.048Z,101355.50
2022-10-03T12:26:28.890Z,101354.34
2022-10-03T12:27:30.983Z,101352.31
2022-10-03T12:28:39.896Z,101349.16
2022-10-03T12:29:45.732Z,101344.63
2022-10-03T12:30:55.418Z,101342.28
2022-10-03T12:32:09.079Z,101350.81
2022-10-03T12:33:19.983Z,101348.63
2022-10-03T12:34:39.738Z,101336.03
2022-10-03T12:35:50.663Z,101329.66
2022-10-03T12:36:53.172Z,101334.19
2022-10-03T12:37:58.355Z,101322.28
2022-10-03T12:39:05.748Z,101335.34
2022-10-03T12:40:13.244Z,101331.34
2022-10-03T12:41:20.941Z,101332.19
2022-10-03T12:42:27.122Z,101332.84
2022-10-03T12:43:35.044Z,101323.78
2022-10-03T12:44:45.635Z,101335.00
2022-10-03T12:46:01.433Z,101324.25
2022-10-03T12:47:54.203Z,101325.09
2022-10-03T12:49:00.092Z,101326.44
2022-10-03T12:50:21.271Z,101327.63
2022-10-03T12:51:23.253Z,101333.31
2022-10-03T12:52:24.746Z,101325.59
2022-10-03T12:53:31.989Z,101327.63
2022-10-03T12:54:33.398Z,101327.63
2022-10-03T12:55:35.371Z,101325.44
2022-10-03T12:56:45.707Z,101319.91
2022-10-03T12:57:54.834Z,101324.44
2022-10-03T12:59:15.051Z,101321.06
2022-10-03T13:00:20.980Z,101323.38
2022-10-03T13:01:38.092Z,101330.09
2022-10-03T13:02:42.961Z,101316.16
2022-10-03T13:03:53.786Z,101324.53
2022-10-03T13:05:18.162Z,101312.44
2022-10-03T13:07:01.933Z,101318.13
2022-10-03T13:08:00.490Z,101312.78
2022-10-03T13:09:20.956Z,101311.94
2022-10-03T13:10:25.686Z,101311.44
2022-10-03T13:11:27.193Z,101311.44
2022-10-03T13:12:55.683Z,101313.09
2022-10-03T13:14:15.809Z,101300.88
2022-10-03T13:15:35.851Z,101309.75
2022-10-03T13:16:56.244Z,101309.09
2022-10-03T13:18:06.633Z,101309.94
2022-10-03T13:19:21.521Z,101309.09
2022-10-03T13:20:27.582Z,101307.06
2022-10-03T13:21:46.843Z,101306.75
2022-10-03T13:22:53.024Z,101303.38
2022-10-03T13:23:57.543Z,101311.44
2022-10-03T13:25:08.782Z,101306.25
2022-10-03T13:26:18.329Z,101301.03
2022-10-03T13:27:22.798Z,101294.72
2022-10-03T13:28:31.374Z,101300.59
2022-10-03T13:29:42.867Z,101303.59
2022-10-03T13:30:48.337Z,101312.16
2022-10-03T13:31:55.174Z,101306.63
2022-10-03T13:32:57.868Z,101296.06
2022-10-03T13:34:00.535Z,101303.97
2022-10-03T13:35:24.889Z,101301.97
2022-10-03T13:36:28.199Z,101308.16
2022-10-03T13:37:35.704Z,101297.09